createdAt,value
2018-07-20T00:01:06.766Z,6.30
2018-07-20T00:03:11.732Z,5.93
2018-07-20T00:05:16.411Z,6.20
2018-07-20T00:07:22.532Z,6.20
2018-07-20T00:09:27.328Z,5.93
2018-07-20T00:11:32.601Z,6.10
2018-07-20T00:13:37.565Z,6.30
2018-07-20T00:15:42.397Z,6.47
2018-07-20T00:17:47.161Z,6.03
2018-07-20T00:19:51.900Z,6.30
2018-07-20T00:21:56.506Z,6.70
2018-07-20T00:24:01.567Z,6.67
2018-07-20T00:26:06.985Z,5.60
2018-07-20T00:28:11.758Z,6.50
2018-07-20T00:30:16.988Z,5.83
2018-07-20T00:32:21.818Z,6.50
2018-07-20T00:34:26.736Z,6.60
2018-07-20T00:36:32.123Z,6.50
2018-07-20T00:38:36.901Z,7.07
2018-07-20T00:40:41.591Z,7.07
2018-07-20T00:42:46.222Z,6.67
2018-07-20T00:44:50.796Z,6.87
2018-07-20T00:46:55.282Z,7.80
2018-07-20T00:48:59.927Z,6.70
2018-07-20T00:51:04.472Z,7.13
2018-07-20T00:53:09.120Z,6.33
2018-07-20T00:55:13.757Z,7.90
2018-07-20T00:57:18.313Z,7.20
2018-07-20T00:59:23.068Z,7.27
2018-07-20T01:01:27.718Z,7.20
2018-07-20T01:03:32.285Z,6.57
2018-07-20T01:05:36.834Z,6.90
2018-07-20T01:07:41.371Z,7.30
2018-07-20T01:09:45.927Z,6.93
2018-07-20T01:11:50.486Z,6.40
2018-07-20T01:13:55.033Z,7.70
2018-07-20T01:15:59.446Z,6.53
2018-07-20T01:18:04.044Z,6.60
2018-07-20T01:20:08.827Z,6.47
2018-07-20T01:22:13.474Z,7.23
2018-07-20T01:24:18.055Z,7.10
2018-07-20T01:26:23.596Z,6.40
2018-07-20T01:28:28.165Z,7.30
2018-07-20T01:30:32.682Z,7.47
2018-07-20T01:32:37.298Z,7.90
2018-07-20T01:34:41.996Z,7.57
2018-07-20T01:36:47.132Z,7.33
2018-07-20T01:38:51.739Z,7.33
2018-07-20T01:40:56.263Z,6.97
2018-07-20T01:43:00.870Z,7.37
2018-07-20T01:45:05.071Z,6.50
2018-07-20T01:47:09.560Z,6.43
2018-07-20T01:49:14.120Z,6.90
2018-07-20T01:51:18.668Z,6.47
2018-07-20T01:53:23.327Z,6.43
2018-07-20T01:55:27.912Z,7.30
2018-07-20T01:57:32.639Z,6.90
2018-07-20T01:59:37.209Z,7.30
2018-07-20T02:01:41.780Z,7.27
2018-07-20T02:03:46.270Z,7.50
2018-07-20T02:05:50.943Z,7.37
2018-07-20T02:07:55.439Z,6.83
2018-07-20T02:09:59.994Z,7.93
2018-07-20T02:12:04.462Z,7.50
2018-07-20T02:14:09.078Z,8.37
2018-07-20T02:16:13.890Z,7.70
2018-07-20T02:18:18.402Z,8.80
2018-07-20T02:20:22.996Z,7.80
2018-07-20T02:22:27.566Z,8.00
2018-07-20T02:24:32.121Z,7.47
2018-07-20T02:26:36.702Z,7.20
2018-07-20T02:28:41.199Z,7.93
2018-07-20T02:30:45.933Z,8.07
2018-07-20T02:32:51.112Z,7.50
2018-07-20T02:34:55.728Z,8.23
2018-07-20T02:37:00.293Z,7.37
2018-07-20T02:39:09.986Z,8.17
2018-07-20T02:41:14.602Z,7.80
2018-07-20T02:43:19.239Z,7.67
2018-07-20T02:45:23.754Z,7.10
2018-07-20T02:47:28.384Z,7.23
2018-07-20T02:49:32.929Z,7.60
2018-07-20T02:51:38.531Z,6.93
2018-07-20T02:53:43.090Z,7.60
2018-07-20T02:55:47.641Z,7.40
2018-07-20T02:57:52.673Z,7.30
2018-07-20T02:59:57.223Z,8.17
2018-07-20T03:02:01.871Z,7.90
2018-07-20T03:04:06.362Z,8.00
2018-07-20T03:06:10.886Z,6.97
2018-07-20T03:08:15.489Z,7.27
2018-07-20T03:10:19.996Z,7.93
2018-07-20T03:12:24.643Z,7.20
2018-07-20T03:14:29.222Z,7.67
2018-07-20T03:16:33.772Z,7.70
2018-07-20T03:18:38.357Z,7.57
2018-07-20T03:20:43.111Z,8.00
2018-07-20T03:22:47.742Z,7.27
2018-07-20T03:24:52.276Z,7.83
2018-07-20T03:26:56.876Z,8.40
2018-07-20T03:29:01.443Z,8.13
2018-07-20T03:31:05.954Z,8.10
2018-07-20T03:33:10.644Z,8.17
2018-07-20T03:35:15.166Z,8.20
2018-07-20T03:37:20.343Z,7.27
2018-07-20T03:39:24.908Z,8.37
2018-07-20T03:41:29.466Z,8.10
2018-07-20T03:43:33.998Z,8.93
2018-07-20T03:45:38.431Z,9.27
2018-07-20T03:47:43.042Z,8.10
2018-07-20T03:49:48.565Z,8.67
2018-07-20T03:51:53.067Z,8.30
2018-07-20T03:53:57.608Z,8.80
2018-07-20T03:56:02.096Z,8.40
2018-07-20T03:58:06.728Z,8.27
2018-07-20T04:00:11.356Z,8.83
2018-07-20T04:02:15.863Z,8.43
2018-07-20T04:04:20.412Z,8.53
2018-07-20T04:06:24.899Z,7.63
2018-07-20T04:08:29.372Z,8.83
2018-07-20T04:10:33.915Z,8.43
2018-07-20T04:12:38.087Z,8.43
2018-07-20T04:14:42.520Z,8.00
2018-07-20T04:16:46.988Z,8.77
2018-07-20T04:18:51.531Z,7.90
2018-07-20T04:20:56.085Z,7.60
2018-07-20T04:23:00.634Z,8.20
2018-07-20T04:25:05.474Z,7.30
2018-07-20T04:27:10.017Z,7.93
2018-07-20T04:29:14.738Z,8.00
2018-07-20T04:31:19.369Z,7.70
2018-07-20T04:33:23.938Z,9.03
2018-07-20T04:35:28.905Z,8.70
2018-07-20T04:37:33.432Z,7.70
2018-07-20T04:39:37.965Z,8.07
2018-07-20T04:41:43.194Z,8.30
2018-07-20T04:43:47.748Z,7.53
2018-07-20T04:45:52.309Z,8.63
2018-07-20T04:47:56.800Z,8.30
2018-07-20T04:50:01.347Z,9.30
2018-07-20T04:52:05.868Z,8.77
2018-07-20T04:54:10.343Z,8.33
2018-07-20T04:56:14.732Z,8.30
2018-07-20T04:58:19.155Z,8.03
2018-07-20T05:00:24.511Z,8.90
2018-07-20T05:02:29.074Z,8.33
2018-07-20T05:04:33.753Z,9.00
2018-07-20T05:06:38.543Z,8.80
2018-07-20T05:08:43.052Z,8.33
2018-07-20T05:10:47.585Z,9.40
2018-07-20T05:12:52.103Z,10.27
2018-07-20T05:14:56.628Z,9.73
2018-07-20T05:17:01.138Z,10.07
2018-07-20T05:19:05.795Z,9.20
2018-07-20T05:21:10.278Z,8.93
2018-07-20T05:23:14.848Z,9.40
2018-07-20T05:25:19.368Z,9.70
2018-07-20T05:27:23.989Z,10.10
2018-07-20T05:29:28.517Z,11.17
2018-07-20T05:31:33.051Z,8.93
2018-07-20T05:33:37.649Z,9.90
2018-07-20T05:35:42.199Z,10.60
2018-07-20T05:37:46.712Z,10.10
2018-07-20T05:39:51.244Z,10.33
2018-07-20T05:41:55.803Z,9.80
2018-07-20T05:44:00.406Z,9.87
2018-07-20T05:46:04.931Z,10.13
2018-07-20T05:48:09.512Z,9.03
2018-07-20T05:50:13.983Z,9.63
2018-07-20T05:52:18.541Z,9.70
2018-07-20T05:54:23.209Z,8.70
2018-07-20T05:56:27.759Z,9.47
2018-07-20T05:58:32.218Z,8.53
2018-07-20T06:00:36.643Z,8.50
2018-07-20T06:02:41.198Z,8.07
2018-07-20T06:04:46.879Z,7.60
2018-07-20T06:06:51.412Z,7.70
2018-07-20T06:08:56.138Z,7.87
2018-07-20T06:11:00.816Z,7.30
2018-07-20T06:13:05.447Z,6.80
2018-07-20T06:15:09.991Z,7.03
2018-07-20T06:17:14.458Z,6.70
2018-07-20T06:19:19.003Z,6.50
2018-07-20T06:21:23.599Z,6.10
2018-07-20T06:23:28.175Z,7.00
2018-07-20T06:25:32.688Z,5.50
2018-07-20T06:27:37.268Z,6.30
2018-07-20T06:29:41.843Z,6.90
2018-07-20T06:31:46.300Z,6.80
2018-07-20T06:33:50.527Z,6.23
2018-07-20T06:35:54.932Z,5.50
2018-07-20T06:37:59.567Z,5.77
2018-07-20T06:40:03.770Z,5.10
2018-07-20T06:42:08.168Z,5.13
2018-07-20T06:44:12.694Z,5.57
2018-07-20T06:46:16.798Z,6.03
2018-07-20T06:48:21.193Z,5.43
2018-07-20T06:50:26.083Z,6.73
2018-07-20T06:52:30.589Z,5.60
2018-07-20T06:54:35.164Z,5.10
2018-07-20T06:56:39.857Z,5.37
2018-07-20T06:58:44.377Z,8.17
2018-07-20T07:00:48.814Z,17.27
2018-07-20T07:02:53.291Z,9.63
2018-07-20T07:04:57.825Z,7.20
2018-07-20T07:07:02.592Z,5.30
2018-07-20T07:09:09.113Z,5.00
2018-07-20T07:11:13.715Z,5.07
2018-07-20T07:13:17.870Z,5.20
2018-07-20T07:15:22.189Z,4.57
2018-07-20T07:17:26.705Z,4.60
2018-07-20T07:19:31.285Z,4.83
2018-07-20T07:21:35.820Z,4.50
2018-07-20T07:23:40.430Z,4.70
2018-07-20T07:25:44.926Z,4.70
2018-07-20T07:27:49.521Z,5.23
2018-07-20T07:29:54.143Z,4.40
2018-07-20T07:31:59.282Z,4.73
2018-07-20T07:34:04.007Z,4.10
2018-07-20T07:36:08.592Z,5.17
2018-07-20T07:38:13.088Z,4.63
2018-07-20T07:40:17.578Z,4.53
2018-07-20T07:42:22.059Z,4.97
2018-07-20T07:44:26.546Z,5.00
2018-07-20T07:46:31.039Z,5.00
2018-07-20T07:48:35.556Z,5.00
2018-07-20T07:50:39.677Z,4.83
2018-07-20T07:52:44.049Z,5.10
2018-07-20T07:54:48.689Z,4.67
2018-07-20T07:56:53.201Z,6.27
2018-07-20T07:58:57.733Z,6.50
2018-07-20T08:01:01.806Z,4.63
2018-07-20T08:03:06.339Z,5.23
2018-07-20T08:05:10.842Z,5.10
2018-07-20T08:07:15.251Z,4.90
2018-07-20T08:09:19.827Z,4.40
2018-07-20T08:11:24.332Z,5.50
2018-07-20T08:13:28.902Z,4.57
2018-07-20T08:15:33.502Z,5.00
2018-07-20T08:17:38.170Z,5.53
2018-07-20T08:19:42.691Z,5.00
2018-07-20T08:21:47.164Z,4.90
2018-07-20T08:23:51.835Z,4.90
2018-07-20T08:25:56.412Z,4.40
2018-07-20T08:28:01.067Z,4.23
2018-07-20T08:30:06.810Z,4.33
2018-07-20T08:32:11.519Z,5.80
2018-07-20T08:34:26.099Z,4.37
2018-07-20T08:36:33.686Z,4.43
2018-07-20T08:38:42.536Z,4.20
2018-07-20T08:40:48.888Z,4.20
2018-07-20T08:42:54.195Z,4.27
2018-07-20T08:44:58.719Z,4.80
2018-07-20T08:47:03.373Z,4.40
2018-07-20T08:49:07.951Z,4.50
2018-07-20T08:51:12.516Z,4.23
2018-07-20T08:53:16.999Z,4.87
2018-07-20T08:55:21.623Z,4.67
2018-07-20T08:57:26.101Z,4.30
2018-07-20T08:59:30.616Z,4.03
2018-07-20T09:01:35.132Z,4.43
2018-07-20T09:03:39.722Z,4.23
2018-07-20T09:05:44.254Z,4.60
2018-07-20T09:07:50.691Z,4.73
2018-07-20T09:09:55.315Z,4.37
2018-07-20T09:12:00.349Z,4.47
2018-07-20T09:14:10.413Z,3.80
2018-07-20T09:16:15.439Z,4.50
2018-07-20T09:18:20.077Z,4.30
2018-07-20T09:20:24.990Z,3.83
2018-07-20T09:22:29.463Z,4.40
2018-07-20T09:24:34.534Z,4.20
2018-07-20T09:26:39.216Z,4.33
2018-07-20T09:28:43.766Z,4.20
2018-07-20T09:30:48.321Z,3.80
2018-07-20T09:32:54.363Z,3.90
2018-07-20T09:34:59.049Z,4.00
2018-07-20T09:37:03.694Z,3.80
2018-07-20T09:39:10.125Z,4.33
2018-07-20T09:41:14.885Z,4.23
2018-07-20T09:43:19.587Z,4.37
2018-07-20T09:45:24.197Z,3.73
2018-07-20T09:47:28.753Z,3.87
2018-07-20T09:49:33.334Z,3.80
2018-07-20T09:51:38.427Z,4.27
2018-07-20T09:53:42.514Z,4.13
2018-07-20T09:55:47.902Z,4.00
2018-07-20T09:57:52.526Z,3.53
2018-07-20T09:59:57.210Z,4.30
2018-07-20T10:02:01.820Z,3.30
2018-07-20T10:04:06.587Z,4.00
2018-07-20T10:06:11.068Z,3.10
2018-07-20T10:08:15.863Z,3.63
2018-07-20T10:10:20.479Z,4.43
2018-07-20T10:12:25.055Z,3.93
2018-07-20T10:14:29.765Z,4.10
2018-07-20T10:16:34.453Z,4.20
2018-07-20T10:18:38.965Z,4.10
2018-07-20T10:20:43.539Z,4.60
2018-07-20T10:22:48.177Z,4.40
2018-07-20T10:24:52.744Z,4.07
2018-07-20T10:26:57.411Z,4.17
2018-07-20T10:29:01.972Z,4.07
2018-07-20T10:31:07.507Z,4.23
2018-07-20T10:33:12.091Z,4.50
2018-07-20T10:35:16.631Z,3.90
2018-07-20T10:37:21.138Z,4.57
2018-07-20T10:39:25.633Z,4.20
2018-07-20T10:41:30.168Z,4.30
2018-07-20T10:43:34.651Z,3.90
2018-07-20T10:45:39.262Z,4.83
2018-07-20T10:47:43.781Z,4.30
2018-07-20T10:49:48.437Z,4.13
2018-07-20T10:51:52.876Z,3.80
2018-07-20T10:53:57.417Z,3.87
2018-07-20T10:56:02.063Z,4.07
2018-07-20T10:58:06.995Z,4.13
2018-07-20T11:00:11.791Z,3.80
2018-07-20T11:02:16.278Z,4.23
2018-07-20T11:04:20.789Z,4.10
2018-07-20T11:06:25.336Z,3.90
2018-07-20T11:08:32.242Z,4.30
2018-07-20T11:10:36.961Z,4.30
2018-07-20T11:12:41.459Z,4.20
2018-07-20T11:14:52.638Z,4.00
2018-07-20T11:16:57.147Z,4.00
2018-07-20T11:19:01.744Z,4.03
2018-07-20T11:21:06.348Z,3.80
2018-07-20T11:23:10.901Z,3.90
2018-07-20T11:25:15.670Z,4.00
2018-07-20T11:27:20.440Z,3.97
2018-07-20T11:29:25.164Z,3.90
2018-07-20T11:31:30.195Z,3.77
2018-07-20T11:33:34.416Z,4.23
2018-07-20T11:35:39.082Z,3.87
2018-07-20T11:37:43.608Z,4.17
2018-07-20T11:39:48.131Z,3.60
2018-07-20T11:41:52.642Z,3.83
2018-07-20T11:43:57.559Z,3.80
2018-07-20T11:46:02.067Z,3.27
2018-07-20T11:48:06.683Z,3.70
2018-07-20T11:50:11.262Z,3.77
2018-07-20T11:52:15.844Z,3.73
2018-07-20T11:54:20.278Z,3.20
2018-07-20T11:56:24.787Z,4.40
2018-07-20T11:58:29.293Z,4.37
2018-07-20T12:00:34.010Z,3.67
2018-07-20T12:02:38.476Z,4.10
2018-07-20T12:04:43.076Z,4.10
2018-07-20T12:06:47.628Z,4.23
2018-07-20T12:08:52.069Z,4.30
2018-07-20T12:10:56.691Z,4.23
2018-07-20T12:13:01.128Z,3.97
2018-07-20T12:15:06.395Z,4.07
2018-07-20T12:17:11.622Z,4.40
2018-07-20T12:19:16.097Z,3.97
2018-07-20T12:21:20.584Z,3.63
2018-07-20T12:23:25.251Z,3.70
2018-07-20T12:25:29.857Z,4.17
2018-07-20T12:27:34.402Z,4.30
2018-07-20T12:29:39.092Z,3.90
2018-07-20T12:31:44.036Z,3.73
2018-07-20T12:33:48.504Z,3.93
2018-07-20T12:35:53.158Z,4.03
2018-07-20T12:37:57.672Z,4.37
2018-07-20T12:40:02.407Z,4.30
2018-07-20T12:42:07.048Z,4.53
2018-07-20T12:44:11.594Z,3.60
2018-07-20T12:46:16.233Z,4.00
2018-07-20T12:48:20.810Z,4.57
2018-07-20T12:50:25.314Z,3.90
2018-07-20T12:52:29.919Z,3.90
2018-07-20T12:54:34.577Z,4.13
2018-07-20T12:56:39.329Z,3.80
2018-07-20T12:58:44.044Z,4.23
2018-07-20T13:00:48.580Z,3.80
2018-07-20T13:02:53.047Z,4.10
2018-07-20T13:04:57.540Z,4.10
2018-07-20T13:07:02.088Z,4.03
2018-07-20T13:09:09.462Z,4.17
2018-07-20T13:11:14.036Z,4.10
2018-07-20T13:13:18.638Z,3.50
2018-07-20T13:15:23.324Z,3.80
2018-07-20T13:17:27.921Z,3.70
2018-07-20T13:19:32.429Z,3.33
2018-07-20T13:21:36.982Z,4.00
2018-07-20T13:23:41.476Z,3.90
2018-07-20T13:25:45.982Z,4.07
2018-07-20T13:27:50.515Z,3.80
2018-07-20T13:29:55.104Z,3.63
2018-07-20T13:31:59.658Z,3.80
2018-07-20T13:34:04.183Z,3.50
2018-07-20T13:36:09.517Z,3.57
2018-07-20T13:38:14.014Z,3.77
2018-07-20T13:40:18.140Z,4.53
2018-07-20T13:42:22.551Z,3.50
2018-07-20T13:44:27.015Z,4.03
2018-07-20T13:46:31.563Z,4.27
2018-07-20T13:48:36.002Z,3.93
2018-07-20T13:50:40.541Z,3.40
2018-07-20T13:52:45.054Z,3.93
2018-07-20T13:54:49.625Z,3.43
2018-07-20T13:56:54.149Z,3.50
2018-07-20T13:58:58.710Z,3.60
2018-07-20T14:01:03.320Z,4.10
2018-07-20T14:03:07.786Z,3.37
2018-07-20T14:05:12.317Z,3.50
2018-07-20T14:07:16.836Z,4.07
2018-07-20T14:09:21.455Z,3.60
2018-07-20T14:11:26.139Z,4.23
2018-07-20T14:13:30.983Z,3.47
2018-07-20T14:15:35.556Z,3.10
2018-07-20T14:17:40.171Z,3.53
2018-07-20T14:19:44.748Z,3.60
2018-07-20T14:21:49.539Z,3.53
2018-07-20T14:23:54.286Z,4.00
2018-07-20T14:25:59.033Z,3.83
2018-07-20T14:28:03.769Z,3.87
2018-07-20T14:30:08.328Z,3.93
2018-07-20T14:32:12.927Z,3.70
2018-07-20T14:34:17.497Z,3.77
2018-07-20T14:36:22.154Z,3.70
2018-07-20T14:38:28.675Z,3.73
2018-07-20T14:40:33.737Z,3.97
2018-07-20T14:42:38.995Z,4.00
2018-07-20T14:44:43.650Z,3.40
2018-07-20T14:46:48.369Z,3.93
2018-07-20T14:48:52.831Z,4.23
2018-07-20T14:50:57.425Z,4.50
2018-07-20T14:53:01.917Z,4.17
2018-07-20T14:55:06.454Z,4.00
2018-07-20T14:57:11.013Z,4.00
2018-07-20T14:59:15.516Z,4.03
2018-07-20T15:01:20.185Z,4.40
2018-07-20T15:03:24.741Z,4.47
2018-07-20T15:05:29.284Z,4.20
2018-07-20T15:07:33.908Z,4.00
2018-07-20T15:09:38.517Z,4.40
2018-07-20T15:11:43.018Z,4.33
2018-07-20T15:13:47.957Z,4.33
2018-07-20T15:15:52.588Z,4.17
2018-07-20T15:17:57.168Z,3.93
2018-07-20T15:20:01.695Z,4.10
2018-07-20T15:22:06.481Z,4.23
2018-07-20T15:24:10.964Z,4.43
2018-07-20T15:26:15.539Z,4.37
2018-07-20T15:28:19.988Z,4.27
2018-07-20T15:30:24.552Z,4.20
2018-07-20T15:32:29.144Z,4.20
2018-07-20T15:34:33.689Z,4.20
2018-07-20T15:36:38.278Z,3.80
2018-07-20T15:38:42.821Z,5.30
2018-07-20T15:40:47.347Z,4.33
2018-07-20T15:42:51.895Z,4.27
2018-07-20T15:44:56.480Z,4.20
2018-07-20T15:47:01.261Z,4.43
2018-07-20T15:49:06.393Z,4.73
2018-07-20T15:51:10.978Z,4.20
2018-07-20T15:53:42.680Z,4.77
2018-07-20T15:55:21.583Z,4.70
2018-07-20T15:57:26.203Z,4.30
2018-07-20T15:59:30.731Z,4.27
2018-07-20T16:01:35.354Z,4.33
2018-07-20T16:03:39.897Z,4.67
2018-07-20T16:05:44.447Z,4.67
2018-07-20T16:07:48.928Z,4.47
2018-07-20T16:09:53.424Z,4.60
2018-07-20T16:11:57.580Z,4.30
2018-07-20T16:14:01.995Z,4.57
2018-07-20T16:16:06.546Z,3.73
2018-07-20T16:18:11.132Z,4.60
2018-07-20T16:20:15.699Z,4.40
2018-07-20T16:22:20.362Z,4.60
2018-07-20T16:24:24.910Z,5.03
2018-07-20T16:26:29.532Z,4.43
2018-07-20T16:28:34.059Z,4.53
2018-07-20T16:30:38.625Z,5.00
2018-07-20T16:32:43.159Z,3.83
2018-07-20T16:34:47.920Z,3.97
2018-07-20T16:36:52.400Z,4.30
2018-07-20T16:38:56.983Z,4.73
2018-07-20T16:41:01.541Z,4.20
2018-07-20T16:43:07.326Z,3.87
2018-07-20T16:45:11.834Z,4.33
2018-07-20T16:47:16.382Z,4.93
2018-07-20T16:49:20.903Z,4.87
2018-07-20T16:51:25.406Z,4.27
2018-07-20T16:53:30.020Z,5.10
2018-07-20T16:55:34.580Z,4.57
2018-07-20T16:57:39.124Z,4.17
2018-07-20T16:59:43.578Z,4.30
2018-07-20T17:01:48.751Z,4.37
2018-07-20T17:03:53.575Z,4.47
2018-07-20T17:05:57.681Z,5.10
2018-07-20T17:08:02.050Z,4.50
2018-07-20T17:10:06.622Z,5.00
2018-07-20T17:12:11.134Z,5.07
2018-07-20T17:14:15.692Z,5.57
2018-07-20T17:16:20.231Z,4.63
2018-07-20T17:18:24.764Z,4.77
2018-07-20T17:20:29.214Z,4.40
2018-07-20T17:22:33.753Z,4.70
2018-07-20T17:24:38.240Z,4.43
2018-07-20T17:26:42.733Z,5.20
2018-07-20T17:28:47.236Z,4.50
2018-07-20T17:30:51.895Z,4.53
2018-07-20T17:32:58.214Z,4.80
2018-07-20T17:35:02.768Z,4.57
2018-07-20T17:37:07.388Z,4.20
2018-07-20T17:39:12.934Z,5.17
2018-07-20T17:41:18.556Z,4.23
2018-07-20T17:43:23.236Z,4.10
2018-07-20T17:45:29.673Z,4.20
2018-07-20T17:47:34.319Z,4.10
2018-07-20T17:49:38.963Z,5.07
2018-07-20T17:51:43.633Z,4.40
2018-07-20T17:53:48.141Z,3.90
2018-07-20T17:55:52.911Z,4.37
2018-07-20T17:57:57.429Z,4.00
2018-07-20T18:00:01.940Z,4.60
2018-07-20T18:02:06.714Z,4.13
2018-07-20T18:04:11.314Z,4.70
2018-07-20T18:06:15.831Z,4.50
2018-07-20T18:08:20.336Z,4.33
2018-07-20T18:10:24.963Z,5.03
2018-07-20T18:12:29.481Z,4.33
2018-07-20T18:14:33.987Z,3.90
2018-07-20T18:16:38.475Z,4.77
2018-07-20T18:18:43.014Z,4.90
2018-07-20T18:20:47.879Z,4.50
2018-07-20T18:22:52.429Z,4.60
2018-07-20T18:24:56.919Z,4.70
2018-07-20T18:27:01.579Z,4.23
2018-07-20T18:29:06.305Z,4.30
2018-07-20T18:31:10.886Z,4.20
2018-07-20T18:33:15.405Z,4.30
2018-07-20T18:35:20.072Z,4.90
2018-07-20T18:37:24.270Z,4.57
2018-07-20T18:39:28.636Z,5.43
2018-07-20T18:41:33.370Z,5.07
2018-07-20T18:43:37.967Z,4.50
2018-07-20T18:45:42.494Z,4.73
2018-07-20T18:47:47.018Z,4.60
2018-07-20T18:49:51.830Z,4.90
2018-07-20T18:51:56.388Z,5.40
2018-07-20T18:54:00.886Z,4.63
2018-07-20T18:56:05.618Z,5.00
2018-07-20T18:58:09.677Z,5.10
2018-07-20T19:00:14.096Z,5.60
2018-07-20T19:02:18.539Z,5.13
2018-07-20T19:04:23.113Z,4.80
2018-07-20T19:06:27.649Z,4.90
2018-07-20T19:08:32.137Z,4.50
2018-07-20T19:10:36.721Z,4.70
2018-07-20T19:12:42.336Z,4.90
2018-07-20T19:14:46.710Z,4.23
2018-07-20T19:16:51.278Z,4.70
2018-07-20T19:18:55.781Z,4.27
2018-07-20T19:21:00.749Z,4.30
2018-07-20T19:23:05.233Z,4.50
2018-07-20T19:25:09.686Z,4.70
2018-07-20T19:27:14.308Z,4.63
2018-07-20T19:29:18.764Z,4.20
2018-07-20T19:31:23.357Z,4.70
2018-07-20T19:33:27.848Z,5.23
2018-07-20T19:35:32.329Z,5.10
2018-07-20T19:37:36.805Z,5.00
2018-07-20T19:39:41.387Z,4.27
2018-07-20T19:41:45.879Z,5.30
2018-07-20T19:43:50.571Z,4.97
2018-07-20T19:45:57.546Z,4.57
2018-07-20T19:48:02.806Z,5.07
2018-07-20T19:50:07.379Z,5.23
2018-07-20T19:52:11.903Z,5.10
2018-07-20T19:54:16.527Z,5.50
2018-07-20T19:56:21.022Z,5.63
2018-07-20T19:58:25.452Z,5.53
2018-07-20T20:00:30.002Z,6.00
2018-07-20T20:02:34.635Z,5.20
2018-07-20T20:04:39.123Z,5.43
2018-07-20T20:06:43.799Z,4.70
2018-07-20T20:08:48.395Z,5.00
2018-07-20T20:10:53.945Z,5.00
2018-07-20T20:12:58.669Z,4.67
2018-07-20T20:15:03.330Z,4.67
2018-07-20T20:17:10.282Z,4.80
2018-07-20T20:19:16.013Z,5.07
2018-07-20T20:21:20.652Z,5.43
2018-07-20T20:23:25.990Z,5.50
2018-07-20T20:25:32.254Z,5.07
2018-07-20T20:27:37.213Z,5.10
2018-07-20T20:29:42.312Z,4.50
2018-07-20T20:31:46.826Z,4.80
2018-07-20T20:33:51.335Z,5.07
2018-07-20T20:35:55.912Z,5.30
2018-07-20T20:38:01.172Z,5.27
2018-07-20T20:40:07.209Z,5.90
2018-07-20T20:42:11.728Z,5.30
2018-07-20T20:44:17.154Z,4.97
2018-07-20T20:46:21.921Z,5.33
2018-07-20T20:48:26.484Z,5.70
2018-07-20T20:50:30.980Z,5.70
2018-07-20T20:52:36.375Z,4.93
2018-07-20T20:54:40.863Z,5.37
2018-07-20T20:56:45.384Z,5.60
2018-07-20T20:58:50.152Z,5.40
2018-07-20T21:00:55.812Z,4.73
2018-07-20T21:03:00.687Z,5.47
2018-07-20T21:05:05.582Z,5.10
2018-07-20T21:07:10.288Z,5.00
2018-07-20T21:09:16.431Z,6.20
2018-07-20T21:11:21.027Z,5.53
2018-07-20T21:13:26.366Z,5.30
2018-07-20T21:15:31.071Z,5.80
2018-07-20T21:17:35.671Z,5.30
2018-07-20T21:19:40.278Z,5.80
2018-07-20T21:21:44.817Z,5.33
2018-07-20T21:23:49.362Z,6.03
2018-07-20T21:25:54.041Z,5.00
2018-07-20T21:27:58.703Z,5.53
2018-07-20T21:30:03.218Z,5.13
2018-07-20T21:32:07.941Z,5.20
2018-07-20T21:34:12.501Z,5.70
2018-07-20T21:36:17.168Z,5.20
2018-07-20T21:38:21.789Z,5.60
2018-07-20T21:40:26.310Z,5.70
2018-07-20T21:42:30.839Z,6.90
2018-07-20T21:44:35.331Z,5.20
2018-07-20T21:46:40.251Z,5.83
2018-07-20T21:48:44.842Z,5.70
2018-07-20T21:50:49.427Z,6.17
2018-07-20T21:52:53.971Z,6.10
2018-07-20T21:54:58.684Z,5.70
2018-07-20T21:57:03.211Z,6.20
2018-07-20T21:59:07.760Z,5.60
2018-07-20T22:01:12.344Z,5.80
2018-07-20T22:03:16.796Z,5.80
2018-07-20T22:05:21.282Z,7.80
2018-07-20T22:07:25.836Z,5.93
2018-07-20T22:09:30.381Z,6.30
2018-07-20T22:11:34.975Z,6.37
2018-07-20T22:13:39.491Z,6.10
2018-07-20T22:15:44.069Z,6.23
2018-07-20T22:17:48.587Z,5.77
2018-07-20T22:19:53.183Z,5.90
2018-07-20T22:21:57.731Z,5.87
2018-07-20T22:24:02.272Z,6.20
2018-07-20T22:26:06.811Z,6.53
2018-07-20T22:28:11.428Z,6.43
2018-07-20T22:30:15.996Z,7.17
2018-07-20T22:32:20.495Z,6.00
2018-07-20T22:34:25.108Z,6.70
2018-07-20T22:36:29.635Z,6.47
2018-07-20T22:38:34.106Z,6.03
2018-07-20T22:40:38.668Z,6.90
2018-07-20T22:42:43.205Z,6.43
2018-07-20T22:44:47.771Z,6.80
2018-07-20T22:46:52.313Z,6.13
2018-07-20T22:48:56.838Z,6.23
2018-07-20T22:51:01.310Z,7.00
2018-07-20T22:53:05.907Z,7.03
2018-07-20T22:55:10.878Z,7.00
2018-07-20T22:57:15.432Z,6.80
2018-07-20T22:59:19.978Z,6.70
2018-07-20T23:01:24.447Z,7.50
2018-07-20T23:03:29.014Z,7.67
2018-07-20T23:05:33.516Z,7.83
2018-07-20T23:07:38.113Z,7.17
2018-07-20T23:09:42.757Z,6.83
2018-07-20T23:11:46.905Z,7.00
2018-07-20T23:13:51.364Z,6.83
2018-07-20T23:15:55.929Z,6.63
2018-07-20T23:18:00.499Z,7.70
2018-07-20T23:20:05.583Z,6.87
2018-07-20T23:22:10.053Z,7.00
2018-07-20T23:24:14.561Z,7.40
2018-07-20T23:26:19.219Z,7.30
2018-07-20T23:28:23.794Z,7.43
2018-07-20T23:30:28.431Z,7.50
2018-07-20T23:32:32.937Z,7.43
2018-07-20T23:34:37.574Z,7.03
2018-07-20T23:36:42.158Z,7.90
2018-07-20T23:38:46.829Z,6.93
2018-07-20T23:40:51.372Z,7.50
2018-07-20T23:42:55.478Z,7.83
2018-07-20T23:44:59.954Z,7.90
2018-07-20T23:47:04.712Z,7.00
2018-07-20T23:49:09.218Z,6.70
2018-07-20T23:51:14.299Z,7.70
2018-07-20T23:53:19.507Z,7.60
2018-07-20T23:55:24.827Z,7.13
2018-07-20T23:57:29.414Z,7.60
2018-07-20T23:59:33.998Z,7.17
